sensor_id;sensor_type;location;lat;lon;timestamp;P1;durP1;ratioP1;P2;durP2;ratioP2
18360;SDS011;9308;48.550;9.108;2022-08-19T00:02:23;24.07;;;21.60;;
18360;SDS011;9308;48.550;9.108;2022-08-19T00:04:49;22.40;;;20.30;;
18360;SDS011;9308;48.550;9.108;2022-08-19T00:07:17;23.17;;;20.77;;
18360;SDS011;9308;48.550;9.108;2022-08-19T00:09:43;24.47;;;22.27;;
18360;SDS011;9308;48.550;9.108;2022-08-19T00:12:09;22.57;;;20.30;;
18360;SDS011;9308;48.550;9.108;2022-08-19T00:14:35;24.17;;;21.97;;
18360;SDS011;9308;48.550;9.108;2022-08-19T00:17:02;25.10;;;22.83;;
18360;SDS011;9308;48.550;9.108;2022-08-19T00:19:28;23.90;;;21.90;;
18360;SDS011;9308;48.550;9.108;2022-08-19T00:21:55;23.70;;;21.50;;
18360;SDS011;9308;48.550;9.108;2022-08-19T00:24:21;24.87;;;22.37;;
18360;SDS011;9308;48.550;9.108;2022-08-19T00:26:47;23.97;;;21.67;;
18360;SDS011;9308;48.550;9.108;2022-08-19T00:29:14;24.23;;;22.00;;
18360;SDS011;9308;48.550;9.108;2022-08-19T00:31:41;24.80;;;22.50;;
18360;SDS011;9308;48.550;9.108;2022-08-19T00:34:08;23.30;;;21.00;;
18360;SDS011;9308;48.550;9.108;2022-08-19T00:36:34;24.47;;;22.03;;
18360;SDS011;9308;48.550;9.108;2022-08-19T00:38:59;24.47;;;22.20;;
18360;SDS011;9308;48.550;9.108;2022-08-19T00:41:25;23.87;;;21.67;;
18360;SDS011;9308;48.550;9.108;2022-08-19T00:46:29;23.77;;;21.53;;
18360;SDS011;9308;48.550;9.108;2022-08-19T00:48:54;25.87;;;23.30;;
18360;SDS011;9308;48.550;9.108;2022-08-19T00:51:23;24.70;;;22.40;;
18360;SDS011;9308;48.550;9.108;2022-08-19T00:53:52;25.77;;;23.30;;
18360;SDS011;9308;48.550;9.108;2022-08-19T00:56:19;25.83;;;23.53;;
18360;SDS011;9308;48.550;9.108;2022-08-19T00:58:44;25.73;;;23.23;;
18360;SDS011;9308;48.550;9.108;2022-08-19T01:01:10;26.43;;;23.97;;
18360;SDS011;9308;48.550;9.108;2022-08-19T01:03:35;26.77;;;24.23;;
18360;SDS011;9308;48.550;9.108;2022-08-19T01:06:01;25.93;;;23.43;;
18360;SDS011;9308;48.550;9.108;2022-08-19T01:08:27;26.57;;;23.90;;
18360;SDS011;9308;48.550;9.108;2022-08-19T01:10:54;27.57;;;25.07;;
18360;SDS011;9308;48.550;9.108;2022-08-19T01:13:22;27.60;;;24.80;;
18360;SDS011;9308;48.550;9.108;2022-08-19T01:15:50;28.13;;;25.23;;
18360;SDS011;9308;48.550;9.108;2022-08-19T01:18:19;27.40;;;24.80;;
18360;SDS011;9308;48.550;9.108;2022-08-19T01:20:46;28.73;;;26.03;;
18360;SDS011;9308;48.550;9.108;2022-08-19T01:23:13;28.73;;;25.87;;
18360;SDS011;9308;48.550;9.108;2022-08-19T01:25:47;30.70;;;27.50;;
18360;SDS011;9308;48.550;9.108;2022-08-19T01:28:25;31.57;;;28.67;;
18360;SDS011;9308;48.550;9.108;2022-08-19T01:30:52;31.23;;;28.07;;
18360;SDS011;9308;48.550;9.108;2022-08-19T01:33:19;30.80;;;27.70;;
18360;SDS011;9308;48.550;9.108;2022-08-19T01:35:45;31.70;;;28.80;;
18360;SDS011;9308;48.550;9.108;2022-08-19T01:38:25;34.20;;;30.97;;
18360;SDS011;9308;48.550;9.108;2022-08-19T01:40:51;31.00;;;28.10;;
18360;SDS011;9308;48.550;9.108;2022-08-19T01:43:17;31.90;;;28.83;;
18360;SDS011;9308;48.550;9.108;2022-08-19T01:45:44;32.87;;;29.87;;
18360;SDS011;9308;48.550;9.108;2022-08-19T01:48:11;31.90;;;28.97;;
18360;SDS011;9308;48.550;9.108;2022-08-19T01:50:38;29.50;;;26.77;;
18360;SDS011;9308;48.550;9.108;2022-08-19T01:53:04;32.53;;;29.23;;
18360;SDS011;9308;48.550;9.108;2022-08-19T01:55:32;33.17;;;30.07;;
18360;SDS011;9308;48.550;9.108;2022-08-19T01:57:59;31.63;;;28.53;;
18360;SDS011;9308;48.550;9.108;2022-08-19T02:00:28;32.87;;;29.47;;
18360;SDS011;9308;48.550;9.108;2022-08-19T02:02:56;31.10;;;28.23;;
18360;SDS011;9308;48.550;9.108;2022-08-19T02:05:22;32.77;;;29.30;;
18360;SDS011;9308;48.550;9.108;2022-08-19T02:07:48;32.73;;;29.63;;
18360;SDS011;9308;48.550;9.108;2022-08-19T02:10:15;31.10;;;28.00;;
18360;SDS011;9308;48.550;9.108;2022-08-19T02:12:44;30.30;;;27.30;;
18360;SDS011;9308;48.550;9.108;2022-08-19T02:15:10;31.50;;;28.50;;
18360;SDS011;9308;48.550;9.108;2022-08-19T02:17:36;32.37;;;29.17;;
18360;SDS011;9308;48.550;9.108;2022-08-19T02:20:01;31.10;;;28.03;;
18360;SDS011;9308;48.550;9.108;2022-08-19T02:22:28;31.27;;;28.00;;
18360;SDS011;9308;48.550;9.108;2022-08-19T02:24:53;30.60;;;27.50;;
18360;SDS011;9308;48.550;9.108;2022-08-19T02:27:20;31.17;;;28.13;;
18360;SDS011;9308;48.550;9.108;2022-08-19T02:29:47;33.73;;;29.37;;
18360;SDS011;9308;48.550;9.108;2022-08-19T02:32:14;31.03;;;27.87;;
18360;SDS011;9308;48.550;9.108;2022-08-19T02:34:40;31.27;;;28.10;;
18360;SDS011;9308;48.550;9.108;2022-08-19T02:37:06;33.53;;;30.30;;
18360;SDS011;9308;48.550;9.108;2022-08-19T02:39:51;30.50;;;27.50;;
18360;SDS011;9308;48.550;9.108;2022-08-19T02:42:17;31.27;;;28.07;;
18360;SDS011;9308;48.550;9.108;2022-08-19T02:44:42;32.83;;;29.63;;
18360;SDS011;9308;48.550;9.108;2022-08-19T02:47:09;31.87;;;28.60;;
18360;SDS011;9308;48.550;9.108;2022-08-19T02:49:34;31.50;;;28.37;;
18360;SDS011;9308;48.550;9.108;2022-08-19T02:52:00;32.53;;;29.17;;
18360;SDS011;9308;48.550;9.108;2022-08-19T02:54:26;31.87;;;28.77;;
18360;SDS011;9308;48.550;9.108;2022-08-19T02:56:53;32.63;;;29.13;;
18360;SDS011;9308;48.550;9.108;2022-08-19T02:59:18;32.87;;;29.30;;
18360;SDS011;9308;48.550;9.108;2022-08-19T03:01:43;32.20;;;28.83;;
18360;SDS011;9308;48.550;9.108;2022-08-19T03:04:12;31.37;;;28.27;;
18360;SDS011;9308;48.550;9.108;2022-08-19T03:06:42;31.13;;;27.93;;
18360;SDS011;9308;48.550;9.108;2022-08-19T03:09:09;32.60;;;29.30;;
18360;SDS011;9308;48.550;9.108;2022-08-19T03:11:35;30.27;;;27.27;;
18360;SDS011;9308;48.550;9.108;2022-08-19T03:14:02;35.17;;;26.20;;
18360;SDS011;9308;48.550;9.108;2022-08-19T03:16:29;30.80;;;27.73;;
18360;SDS011;9308;48.550;9.108;2022-08-19T03:18:57;32.23;;;28.70;;
18360;SDS011;9308;48.550;9.108;2022-08-19T03:21:27;30.57;;;27.40;;
18360;SDS011;9308;48.550;9.108;2022-08-19T03:23:57;31.97;;;28.67;;
18360;SDS011;9308;48.550;9.108;2022-08-19T03:26:25;31.20;;;28.20;;
18360;SDS011;9308;48.550;9.108;2022-08-19T03:28:51;30.67;;;27.73;;
18360;SDS011;9308;48.550;9.108;2022-08-19T03:31:20;31.40;;;28.20;;
18360;SDS011;9308;48.550;9.108;2022-08-19T03:33:48;30.63;;;27.37;;
18360;SDS011;9308;48.550;9.108;2022-08-19T03:36:15;31.83;;;28.63;;
18360;SDS011;9308;48.550;9.108;2022-08-19T03:38:47;30.47;;;27.43;;
18360;SDS011;9308;48.550;9.108;2022-08-19T03:41:17;30.90;;;27.60;;
18360;SDS011;9308;48.550;9.108;2022-08-19T03:43:45;32.93;;;29.50;;
18360;SDS011;9308;48.550;9.108;2022-08-19T03:46:19;30.50;;;27.43;;
18360;SDS011;9308;48.550;9.108;2022-08-19T03:48:48;31.23;;;27.83;;
18360;SDS011;9308;48.550;9.108;2022-08-19T03:51:28;33.13;;;29.63;;
18360;SDS011;9308;48.550;9.108;2022-08-19T03:53:58;32.00;;;28.50;;
18360;SDS011;9308;48.550;9.108;2022-08-19T03:56:25;32.50;;;29.20;;
18360;SDS011;9308;48.550;9.108;2022-08-19T03:58:53;31.90;;;28.60;;
18360;SDS011;9308;48.550;9.108;2022-08-19T04:01:20;33.37;;;29.97;;
18360;SDS011;9308;48.550;9.108;2022-08-19T04:03:47;33.17;;;29.80;;
18360;SDS011;9308;48.550;9.108;2022-08-19T04:06:17;33.77;;;30.30;;
18360;SDS011;9308;48.550;9.108;2022-08-19T04:08:45;34.03;;;30.60;;
18360;SDS011;9308;48.550;9.108;2022-08-19T04:11:15;33.27;;;30.10;;
18360;SDS011;9308;48.550;9.108;2022-08-19T04:13:42;34.10;;;30.70;;
18360;SDS011;9308;48.550;9.108;2022-08-19T04:16:10;32.87;;;29.47;;
18360;SDS011;9308;48.550;9.108;2022-08-19T04:18:37;35.10;;;31.47;;
18360;SDS011;9308;48.550;9.108;2022-08-19T04:21:03;33.10;;;29.53;;
18360;SDS011;9308;48.550;9.108;2022-08-19T04:23:30;33.03;;;29.77;;
18360;SDS011;9308;48.550;9.108;2022-08-19T04:25:56;33.40;;;30.00;;
18360;SDS011;9308;48.550;9.108;2022-08-19T04:28:22;34.53;;;30.87;;
18360;SDS011;9308;48.550;9.108;2022-08-19T04:30:49;34.30;;;30.67;;
18360;SDS011;9308;48.550;9.108;2022-08-19T04:33:17;37.07;;;31.47;;
18360;SDS011;9308;48.550;9.108;2022-08-19T04:35:45;34.73;;;31.00;;
18360;SDS011;9308;48.550;9.108;2022-08-19T04:38:14;32.63;;;29.23;;
18360;SDS011;9308;48.550;9.108;2022-08-19T04:40:42;34.33;;;30.67;;
18360;SDS011;9308;48.550;9.108;2022-08-19T04:43:28;34.13;;;30.60;;
18360;SDS011;9308;48.550;9.108;2022-08-19T04:45:54;34.80;;;31.17;;
18360;SDS011;9308;48.550;9.108;2022-08-19T04:48:20;35.90;;;32.20;;
18360;SDS011;9308;48.550;9.108;2022-08-19T04:50:50;39.00;;;34.73;;
18360;SDS011;9308;48.550;9.108;2022-08-19T04:53:29;37.80;;;33.70;;
18360;SDS011;9308;48.550;9.108;2022-08-19T04:55:57;37.40;;;33.40;;
18360;SDS011;9308;48.550;9.108;2022-08-19T04:58:24;39.57;;;35.30;;
18360;SDS011;9308;48.550;9.108;2022-08-19T05:00:51;38.30;;;34.10;;
18360;SDS011;9308;48.550;9.108;2022-08-19T05:03:17;37.33;;;33.50;;
18360;SDS011;9308;48.550;9.108;2022-08-19T05:05:44;36.10;;;32.40;;
18360;SDS011;9308;48.550;9.108;2022-08-19T05:08:11;37.40;;;33.47;;
18360;SDS011;9308;48.550;9.108;2022-08-19T05:10:38;39.43;;;35.30;;
18360;SDS011;9308;48.550;9.108;2022-08-19T05:13:04;38.37;;;34.43;;
18360;SDS011;9308;48.550;9.108;2022-08-19T05:15:30;40.10;;;35.83;;
18360;SDS011;9308;48.550;9.108;2022-08-19T05:17:56;37.60;;;33.77;;
18360;SDS011;9308;48.550;9.108;2022-08-19T05:20:40;37.93;;;33.70;;
18360;SDS011;9308;48.550;9.108;2022-08-19T05:23:24;41.80;;;37.60;;
18360;SDS011;9308;48.550;9.108;2022-08-19T05:25:50;38.87;;;34.70;;
18360;SDS011;9308;48.550;9.108;2022-08-19T05:28:17;40.90;;;36.60;;
18360;SDS011;9308;48.550;9.108;2022-08-19T05:30:43;40.23;;;35.87;;
18360;SDS011;9308;48.550;9.108;2022-08-19T05:33:10;39.37;;;35.13;;
18360;SDS011;9308;48.550;9.108;2022-08-19T05:35:37;40.60;;;36.30;;
18360;SDS011;9308;48.550;9.108;2022-08-19T05:38:04;40.60;;;36.20;;
18360;SDS011;9308;48.550;9.108;2022-08-19T05:40:36;41.43;;;37.07;;
18360;SDS011;9308;48.550;9.108;2022-08-19T05:43:04;38.60;;;34.57;;
18360;SDS011;9308;48.550;9.108;2022-08-19T05:45:30;38.80;;;34.80;;
18360;SDS011;9308;48.550;9.108;2022-08-19T05:47:56;38.67;;;34.67;;
18360;SDS011;9308;48.550;9.108;2022-08-19T05:50:23;37.87;;;33.77;;
18360;SDS011;9308;48.550;9.108;2022-08-19T05:52:51;41.23;;;36.50;;
18360;SDS011;9308;48.550;9.108;2022-08-19T05:55:17;39.00;;;35.00;;
18360;SDS011;9308;48.550;9.108;2022-08-19T05:57:45;39.93;;;35.27;;
18360;SDS011;9308;48.550;9.108;2022-08-19T06:00:11;42.27;;;37.67;;
18360;SDS011;9308;48.550;9.108;2022-08-19T06:02:37;40.60;;;36.20;;
18360;SDS011;9308;48.550;9.108;2022-08-19T06:05:04;41.13;;;36.73;;
18360;SDS011;9308;48.550;9.108;2022-08-19T06:07:32;41.37;;;37.10;;
18360;SDS011;9308;48.550;9.108;2022-08-19T06:09:57;42.93;;;38.40;;
18360;SDS011;9308;48.550;9.108;2022-08-19T06:12:23;41.67;;;37.37;;
18360;SDS011;9308;48.550;9.108;2022-08-19T06:14:54;40.77;;;36.70;;
18360;SDS011;9308;48.550;9.108;2022-08-19T06:17:20;41.27;;;36.60;;
18360;SDS011;9308;48.550;9.108;2022-08-19T06:19:50;41.93;;;37.37;;
18360;SDS011;9308;48.550;9.108;2022-08-19T06:22:15;41.67;;;37.27;;
18360;SDS011;9308;48.550;9.108;2022-08-19T06:24:41;41.83;;;37.33;;
18360;SDS011;9308;48.550;9.108;2022-08-19T06:27:06;41.40;;;36.87;;
18360;SDS011;9308;48.550;9.108;2022-08-19T06:29:32;39.90;;;35.63;;
18360;SDS011;9308;48.550;9.108;2022-08-19T06:31:59;39.57;;;35.53;;
18360;SDS011;9308;48.550;9.108;2022-08-19T06:34:26;41.10;;;37.00;;
18360;SDS011;9308;48.550;9.108;2022-08-19T06:36:54;41.77;;;37.27;;
18360;SDS011;9308;48.550;9.108;2022-08-19T06:39:26;40.93;;;36.53;;
18360;SDS011;9308;48.550;9.108;2022-08-19T06:41:55;37.73;;;33.70;;
18360;SDS011;9308;48.550;9.108;2022-08-19T06:44:23;41.40;;;36.00;;
18360;SDS011;9308;48.550;9.108;2022-08-19T06:46:51;41.93;;;37.17;;
18360;SDS011;9308;48.550;9.108;2022-08-19T06:49:17;41.37;;;37.00;;
18360;SDS011;9308;48.550;9.108;2022-08-19T06:51:44;40.57;;;36.17;;
18360;SDS011;9308;48.550;9.108;2022-08-19T06:54:13;40.13;;;36.03;;
18360;SDS011;9308;48.550;9.108;2022-08-19T06:56:40;41.33;;;37.03;;
18360;SDS011;9308;48.550;9.108;2022-08-19T06:59:08;40.50;;;36.20;;
18360;SDS011;9308;48.550;9.108;2022-08-19T07:01:43;38.90;;;34.70;;
18360;SDS011;9308;48.550;9.108;2022-08-19T07:04:12;41.27;;;36.30;;
18360;SDS011;9308;48.550;9.108;2022-08-19T07:06:43;41.60;;;37.30;;
18360;SDS011;9308;48.550;9.108;2022-08-19T07:09:09;40.27;;;36.03;;
18360;SDS011;9308;48.550;9.108;2022-08-19T07:11:36;42.73;;;38.23;;
18360;SDS011;9308;48.550;9.108;2022-08-19T07:14:02;39.67;;;35.57;;
18360;SDS011;9308;48.550;9.108;2022-08-19T07:16:28;40.57;;;36.23;;
18360;SDS011;9308;48.550;9.108;2022-08-19T07:18:54;41.10;;;36.90;;
18360;SDS011;9308;48.550;9.108;2022-08-19T07:21:26;39.97;;;35.63;;
18360;SDS011;9308;48.550;9.108;2022-08-19T07:23:56;40.90;;;36.60;;
18360;SDS011;9308;48.550;9.108;2022-08-19T07:26:26;39.93;;;35.83;;
18360;SDS011;9308;48.550;9.108;2022-08-19T07:28:54;40.63;;;36.13;;
18360;SDS011;9308;48.550;9.108;2022-08-19T07:31:21;37.63;;;33.73;;
18360;SDS011;9308;48.550;9.108;2022-08-19T07:33:48;40.00;;;35.83;;
18360;SDS011;9308;48.550;9.108;2022-08-19T07:36:16;40.93;;;36.63;;
18360;SDS011;9308;48.550;9.108;2022-08-19T07:38:44;40.40;;;36.30;;
18360;SDS011;9308;48.550;9.108;2022-08-19T07:41:13;39.20;;;35.10;;
18360;SDS011;9308;48.550;9.108;2022-08-19T07:43:42;39.40;;;35.30;;
18360;SDS011;9308;48.550;9.108;2022-08-19T07:46:09;40.30;;;36.00;;
18360;SDS011;9308;48.550;9.108;2022-08-19T07:48:37;39.23;;;35.33;;
18360;SDS011;9308;48.550;9.108;2022-08-19T07:51:04;38.87;;;34.93;;
18360;SDS011;9308;48.550;9.108;2022-08-19T07:53:30;40.60;;;36.27;;
18360;SDS011;9308;48.550;9.108;2022-08-19T07:55:58;38.23;;;34.37;;
18360;SDS011;9308;48.550;9.108;2022-08-19T07:58:33;39.07;;;35.20;;
18360;SDS011;9308;48.550;9.108;2022-08-19T08:01:04;37.73;;;33.77;;
18360;SDS011;9308;48.550;9.108;2022-08-19T08:03:31;38.63;;;34.73;;
18360;SDS011;9308;48.550;9.108;2022-08-19T08:06:15;38.10;;;34.10;;
18360;SDS011;9308;48.550;9.108;2022-08-19T08:09:00;34.87;;;31.27;;
18360;SDS011;9308;48.550;9.108;2022-08-19T08:11:36;36.47;;;32.97;;
18360;SDS011;9308;48.550;9.108;2022-08-19T08:14:07;37.13;;;33.57;;
18360;SDS011;9308;48.550;9.108;2022-08-19T08:16:38;35.87;;;32.23;;
18360;SDS011;9308;48.550;9.108;2022-08-19T08:19:04;37.97;;;33.97;;
18360;SDS011;9308;48.550;9.108;2022-08-19T08:21:31;34.97;;;31.00;;
18360;SDS011;9308;48.550;9.108;2022-08-19T08:23:57;35.60;;;32.10;;
18360;SDS011;9308;48.550;9.108;2022-08-19T08:26:23;36.20;;;32.60;;
18360;SDS011;9308;48.550;9.108;2022-08-19T08:28:48;38.97;;;35.07;;
18360;SDS011;9308;48.550;9.108;2022-08-19T08:31:14;38.40;;;34.57;;
18360;SDS011;9308;48.550;9.108;2022-08-19T08:33:39;36.67;;;33.07;;
18360;SDS011;9308;48.550;9.108;2022-08-19T08:36:07;37.80;;;33.80;;
18360;SDS011;9308;48.550;9.108;2022-08-19T08:38:34;40.00;;;35.80;;
18360;SDS011;9308;48.550;9.108;2022-08-19T08:41:11;38.73;;;34.70;;
18360;SDS011;9308;48.550;9.108;2022-08-19T08:43:45;39.93;;;35.63;;
18360;SDS011;9308;48.550;9.108;2022-08-19T08:46:13;37.90;;;34.03;;
18360;SDS011;9308;48.550;9.108;2022-08-19T08:48:49;37.93;;;34.03;;
18360;SDS011;9308;48.550;9.108;2022-08-19T08:51:38;35.90;;;32.20;;
18360;SDS011;9308;48.550;9.108;2022-08-19T08:54:10;39.20;;;34.87;;
18360;SDS011;9308;48.550;9.108;2022-08-19T08:56:38;41.40;;;36.80;;
18360;SDS011;9308;48.550;9.108;2022-08-19T08:59:40;40.17;;;35.90;;
18360;SDS011;9308;48.550;9.108;2022-08-19T09:02:00;37.87;;;33.97;;
18360;SDS011;9308;48.550;9.108;2022-08-19T09:04:26;40.50;;;36.33;;
18360;SDS011;9308;48.550;9.108;2022-08-19T09:07:01;39.60;;;35.40;;
18360;SDS011;9308;48.550;9.108;2022-08-19T09:09:43;39.30;;;35.40;;
18360;SDS011;9308;48.550;9.108;2022-08-19T09:15:15;40.77;;;36.60;;
18360;SDS011;9308;48.550;9.108;2022-08-19T09:17:47;42.03;;;37.50;;
18360;SDS011;9308;48.550;9.108;2022-08-19T09:20:18;43.90;;;39.20;;
18360;SDS011;9308;48.550;9.108;2022-08-19T09:22:46;41.37;;;37.10;;
18360;SDS011;9308;48.550;9.108;2022-08-19T09:25:15;40.17;;;36.00;;
18360;SDS011;9308;48.550;9.108;2022-08-19T09:27:43;41.20;;;36.97;;
18360;SDS011;9308;48.550;9.108;2022-08-19T09:30:11;39.67;;;35.67;;
18360;SDS011;9308;48.550;9.108;2022-08-19T09:32:40;41.40;;;37.10;;
18360;SDS011;9308;48.550;9.108;2022-08-19T09:35:07;44.13;;;37.63;;
18360;SDS011;9308;48.550;9.108;2022-08-19T09:37:33;43.07;;;38.73;;
18360;SDS011;9308;48.550;9.108;2022-08-19T09:39:58;43.40;;;38.80;;
18360;SDS011;9308;48.550;9.108;2022-08-19T09:42:24;43.70;;;39.20;;
18360;SDS011;9308;48.550;9.108;2022-08-19T09:44:49;41.63;;;37.17;;
18360;SDS011;9308;48.550;9.108;2022-08-19T09:47:15;43.43;;;38.47;;
18360;SDS011;9308;48.550;9.108;2022-08-19T09:49:40;43.30;;;38.80;;
18360;SDS011;9308;48.550;9.108;2022-08-19T09:52:08;40.50;;;36.40;;
18360;SDS011;9308;48.550;9.108;2022-08-19T09:54:36;41.03;;;36.77;;
18360;SDS011;9308;48.550;9.108;2022-08-19T09:57:02;42.33;;;38.07;;
18360;SDS011;9308;48.550;9.108;2022-08-19T09:59:28;46.10;;;41.10;;
18360;SDS011;9308;48.550;9.108;2022-08-19T10:01:54;51.13;;;44.10;;
18360;SDS011;9308;48.550;9.108;2022-08-19T10:04:20;51.40;;;43.27;;
18360;SDS011;9308;48.550;9.108;2022-08-19T10:06:47;47.60;;;42.50;;
18360;SDS011;9308;48.550;9.108;2022-08-19T10:09:14;48.20;;;42.97;;
18360;SDS011;9308;48.550;9.108;2022-08-19T10:11:41;47.50;;;42.50;;
18360;SDS011;9308;48.550;9.108;2022-08-19T10:14:11;49.10;;;43.50;;
18360;SDS011;9308;48.550;9.108;2022-08-19T10:16:37;49.07;;;43.87;;
18360;SDS011;9308;48.550;9.108;2022-08-19T10:19:04;45.50;;;40.77;;
18360;SDS011;9308;48.550;9.108;2022-08-19T10:21:30;46.07;;;41.10;;
18360;SDS011;9308;48.550;9.108;2022-08-19T10:23:58;47.80;;;42.63;;
18360;SDS011;9308;48.550;9.108;2022-08-19T10:26:26;47.73;;;42.43;;
18360;SDS011;9308;48.550;9.108;2022-08-19T10:28:53;48.70;;;43.00;;
18360;SDS011;9308;48.550;9.108;2022-08-19T10:31:26;49.00;;;43.50;;
18360;SDS011;9308;48.550;9.108;2022-08-19T10:33:54;48.73;;;43.40;;
18360;SDS011;9308;48.550;9.108;2022-08-19T10:36:23;45.03;;;40.13;;
18360;SDS011;9308;48.550;9.108;2022-08-19T10:38:55;47.00;;;41.80;;
18360;SDS011;9308;48.550;9.108;2022-08-19T10:41:33;49.80;;;43.50;;
18360;SDS011;9308;48.550;9.108;2022-08-19T10:44:02;46.93;;;41.97;;
18360;SDS011;9308;48.550;9.108;2022-08-19T10:46:36;46.17;;;41.30;;
18360;SDS011;9308;48.550;9.108;2022-08-19T10:49:07;45.23;;;40.43;;
18360;SDS011;9308;48.550;9.108;2022-08-19T10:51:34;48.13;;;43.17;;
18360;SDS011;9308;48.550;9.108;2022-08-19T10:54:23;46.07;;;41.17;;
18360;SDS011;9308;48.550;9.108;2022-08-19T10:57:08;46.80;;;41.27;;
18360;SDS011;9308;48.550;9.108;2022-08-19T10:59:34;45.03;;;40.40;;
18360;SDS011;9308;48.550;9.108;2022-08-19T11:02:00;44.20;;;39.73;;
18360;SDS011;9308;48.550;9.108;2022-08-19T11:04:27;37.93;;;34.50;;
18360;SDS011;9308;48.550;9.108;2022-08-19T11:06:53;38.67;;;34.97;;
18360;SDS011;9308;48.550;9.108;2022-08-19T11:09:23;38.73;;;34.83;;
18360;SDS011;9308;48.550;9.108;2022-08-19T11:11:50;38.17;;;34.57;;
18360;SDS011;9308;48.550;9.108;2022-08-19T11:14:17;39.50;;;35.70;;
18360;SDS011;9308;48.550;9.108;2022-08-19T11:16:44;40.30;;;36.30;;
18360;SDS011;9308;48.550;9.108;2022-08-19T11:19:11;38.63;;;34.77;;
18360;SDS011;9308;48.550;9.108;2022-08-19T11:21:41;36.10;;;32.90;;
18360;SDS011;9308;48.550;9.108;2022-08-19T11:24:13;40.17;;;36.10;;
18360;SDS011;9308;48.550;9.108;2022-08-19T11:26:41;42.63;;;38.20;;
18360;SDS011;9308;48.550;9.108;2022-08-19T11:29:08;45.90;;;41.13;;
18360;SDS011;9308;48.550;9.108;2022-08-19T11:31:36;44.37;;;39.80;;
18360;SDS011;9308;48.550;9.108;2022-08-19T11:34:05;44.30;;;39.70;;
18360;SDS011;9308;48.550;9.108;2022-08-19T11:36:32;46.07;;;41.17;;
18360;SDS011;9308;48.550;9.108;2022-08-19T11:38:58;46.33;;;41.80;;
18360;SDS011;9308;48.550;9.108;2022-08-19T11:41:25;46.30;;;41.60;;
18360;SDS011;9308;48.550;9.108;2022-08-19T11:43:51;47.70;;;43.00;;
18360;SDS011;9308;48.550;9.108;2022-08-19T11:46:19;44.87;;;40.27;;
18360;SDS011;9308;48.550;9.108;2022-08-19T11:48:45;48.93;;;43.47;;
18360;SDS011;9308;48.550;9.108;2022-08-19T11:51:11;47.47;;;42.50;;
18360;SDS011;9308;48.550;9.108;2022-08-19T11:53:40;45.73;;;40.87;;
18360;SDS011;9308;48.550;9.108;2022-08-19T11:56:07;48.73;;;43.50;;
18360;SDS011;9308;48.550;9.108;2022-08-19T11:58:34;46.53;;;41.73;;
18360;SDS011;9308;48.550;9.108;2022-08-19T12:01:00;44.80;;;40.33;;
18360;SDS011;9308;48.550;9.108;2022-08-19T12:03:26;44.80;;;39.50;;
18360;SDS011;9308;48.550;9.108;2022-08-19T12:05:52;45.00;;;40.50;;
18360;SDS011;9308;48.550;9.108;2022-08-19T12:08:18;43.97;;;39.67;;
18360;SDS011;9308;48.550;9.108;2022-08-19T12:10:43;46.47;;;41.57;;
18360;SDS011;9308;48.550;9.108;2022-08-19T12:13:10;46.50;;;41.80;;
18360;SDS011;9308;48.550;9.108;2022-08-19T12:15:39;46.63;;;41.73;;
18360;SDS011;9308;48.550;9.108;2022-08-19T12:18:08;45.10;;;40.57;;
18360;SDS011;9308;48.550;9.108;2022-08-19T12:20:38;45.40;;;40.77;;
18360;SDS011;9308;48.550;9.108;2022-08-19T12:23:05;44.87;;;40.27;;
18360;SDS011;9308;48.550;9.108;2022-08-19T12:25:32;45.00;;;40.60;;
18360;SDS011;9308;48.550;9.108;2022-08-19T12:27:59;44.23;;;39.80;;
18360;SDS011;9308;48.550;9.108;2022-08-19T12:30:25;45.30;;;40.83;;
18360;SDS011;9308;48.550;9.108;2022-08-19T12:32:50;43.40;;;39.00;;
18360;SDS011;9308;48.550;9.108;2022-08-19T12:35:16;45.00;;;40.53;;
18360;SDS011;9308;48.550;9.108;2022-08-19T12:37:45;43.07;;;38.63;;
18360;SDS011;9308;48.550;9.108;2022-08-19T12:40:12;46.43;;;41.63;;
18360;SDS011;9308;48.550;9.108;2022-08-19T12:42:39;45.87;;;41.00;;
18360;SDS011;9308;48.550;9.108;2022-08-19T12:45:07;44.50;;;40.07;;
18360;SDS011;9308;48.550;9.108;2022-08-19T12:47:35;44.03;;;39.83;;
18360;SDS011;9308;48.550;9.108;2022-08-19T12:50:00;45.17;;;40.50;;
18360;SDS011;9308;48.550;9.108;2022-08-19T12:52:26;43.23;;;39.07;;
18360;SDS011;9308;48.550;9.108;2022-08-19T12:54:53;45.40;;;40.97;;
18360;SDS011;9308;48.550;9.108;2022-08-19T12:57:19;43.80;;;39.47;;
18360;SDS011;9308;48.550;9.108;2022-08-19T12:59:45;45.13;;;40.53;;
18360;SDS011;9308;48.550;9.108;2022-08-19T13:02:10;42.90;;;38.70;;
18360;SDS011;9308;48.550;9.108;2022-08-19T13:04:35;45.10;;;40.60;;
18360;SDS011;9308;48.550;9.108;2022-08-19T13:07:05;43.60;;;39.13;;
18360;SDS011;9308;48.550;9.108;2022-08-19T13:09:31;43.33;;;38.93;;
18360;SDS011;9308;48.550;9.108;2022-08-19T13:11:57;43.70;;;39.23;;
18360;SDS011;9308;48.550;9.108;2022-08-19T13:14:22;41.87;;;37.87;;
18360;SDS011;9308;48.550;9.108;2022-08-19T13:16:48;45.70;;;41.37;;
18360;SDS011;9308;48.550;9.108;2022-08-19T13:19:13;45.00;;;40.30;;
18360;SDS011;9308;48.550;9.108;2022-08-19T13:21:39;45.63;;;40.77;;
18360;SDS011;9308;48.550;9.108;2022-08-19T13:24:04;42.70;;;38.53;;
18360;SDS011;9308;48.550;9.108;2022-08-19T13:26:30;47.00;;;41.93;;
18360;SDS011;9308;48.550;9.108;2022-08-19T13:28:56;43.40;;;39.10;;
18360;SDS011;9308;48.550;9.108;2022-08-19T13:31:40;45.47;;;40.87;;
18360;SDS011;9308;48.550;9.108;2022-08-19T13:34:27;47.57;;;42.87;;
18360;SDS011;9308;48.550;9.108;2022-08-19T13:36:55;45.80;;;41.20;;
18360;SDS011;9308;48.550;9.108;2022-08-19T13:39:21;42.73;;;38.53;;
18360;SDS011;9308;48.550;9.108;2022-08-19T13:41:48;45.27;;;40.87;;
18360;SDS011;9308;48.550;9.108;2022-08-19T13:44:17;43.87;;;39.47;;
18360;SDS011;9308;48.550;9.108;2022-08-19T13:46:46;45.17;;;40.50;;
18360;SDS011;9308;48.550;9.108;2022-08-19T13:49:14;43.23;;;38.80;;
18360;SDS011;9308;48.550;9.108;2022-08-19T13:51:41;41.20;;;37.30;;
18360;SDS011;9308;48.550;9.108;2022-08-19T13:54:08;41.00;;;37.10;;
18360;SDS011;9308;48.550;9.108;2022-08-19T13:56:35;40.53;;;36.70;;
18360;SDS011;9308;48.550;9.108;2022-08-19T13:59:05;39.67;;;35.93;;
18360;SDS011;9308;48.550;9.108;2022-08-19T14:01:30;41.57;;;37.70;;
18360;SDS011;9308;48.550;9.108;2022-08-19T14:03:56;42.23;;;38.13;;
18360;SDS011;9308;48.550;9.108;2022-08-19T14:06:22;43.70;;;39.50;;
18360;SDS011;9308;48.550;9.108;2022-08-19T14:08:48;42.97;;;38.77;;
18360;SDS011;9308;48.550;9.108;2022-08-19T14:11:13;42.23;;;38.10;;
18360;SDS011;9308;48.550;9.108;2022-08-19T14:13:40;40.30;;;36.60;;
18360;SDS011;9308;48.550;9.108;2022-08-19T14:16:09;40.70;;;36.67;;
18360;SDS011;9308;48.550;9.108;2022-08-19T14:18:35;39.73;;;36.10;;
18360;SDS011;9308;48.550;9.108;2022-08-19T14:21:01;38.90;;;35.30;;
18360;SDS011;9308;48.550;9.108;2022-08-19T14:23:28;39.23;;;35.57;;
18360;SDS011;9308;48.550;9.108;2022-08-19T14:25:54;38.53;;;35.00;;
18360;SDS011;9308;48.550;9.108;2022-08-19T14:28:28;42.20;;;38.30;;
18360;SDS011;9308;48.550;9.108;2022-08-19T14:30:55;40.30;;;36.47;;
18360;SDS011;9308;48.550;9.108;2022-08-19T14:33:20;40.23;;;36.73;;
18360;SDS011;9308;48.550;9.108;2022-08-19T14:35:46;41.20;;;37.50;;
18360;SDS011;9308;48.550;9.108;2022-08-19T14:38:14;41.47;;;37.50;;
18360;SDS011;9308;48.550;9.108;2022-08-19T14:40:42;37.07;;;33.57;;
18360;SDS011;9308;48.550;9.108;2022-08-19T14:43:08;38.23;;;34.60;;
18360;SDS011;9308;48.550;9.108;2022-08-19T14:45:36;39.63;;;35.70;;